Time;durP1;ratioP1;P1;durP2;ratioP2;P2;SDS_P1;SDS_P2;PMS_P1;PMS_P2;Temp;Humidity;BMP_temperature;BMP_pressure;BME280_temperature;BME280_humidity;BME280_pressure;Samples;Min_cycle;Max_cycle;Signal;HPM_P1;HPM_P2
2022/03/30 00:00:01;;;;;;;9.23;2.23;;;2.20;99.90;1.20;99202;;;;582878;246;24125;-81
2022/03/30 00:02:29;;;;;;;3.73;1.90;;;2.20;99.90;1.10;99194;;;;583240;245;24073;-81
2022/03/30 00:04:57;;;;;;;3.67;2.00;;;2.10;99.90;1.10;99189;;;;582944;245;24073;-79
2022/03/30 00:07:28;;;;;;;3.10;1.50;;;2.10;99.90;1.10;99184;;;;582904;245;24074;-79
2022/03/30 00:09:53;;;;;;;3.63;2.00;;;2.10;99.90;1.10;99173;;;;582699;246;24069;-81
2022/03/30 00:12:21;;;;;;;4.27;2.10;;;2.10;99.90;1.00;99166;;;;582865;245;26260;-79
2022/03/30 00:14:48;;;;;;;6.17;1.77;;;2.10;99.90;1.00;99159;;;;583036;245;24102;-78
2022/03/30 00:17:20;;;;;;;4.57;2.27;;;2.00;99.90;1.00;99157;;;;582996;245;24072;-82
2022/03/30 00:19:47;;;;;;;6.90;2.00;;;2.00;99.90;1.00;99169;;;;583112;246;24069;-82
2022/03/30 00:22:16;;;;;;;6.00;2.07;;;2.00;99.90;0.90;99181;;;;583392;246;24078;-82
2022/03/30 00:24:47;;;;;;;6.63;1.83;;;1.90;99.90;0.90;99174;;;;582680;245;24090;-78
2022/03/30 00:27:13;;;;;;;5.47;2.17;;;1.90;99.90;0.90;99176;;;;582822;246;24073;-80
2022/03/30 00:29:41;;;;;;;4.70;2.70;;;1.90;99.90;0.90;99168;;;;583138;245;24108;-82
2022/03/30 00:32:09;;;;;;;3.43;2.47;;;1.90;99.90;0.90;99164;;;;583409;245;24081;-79
2022/03/30 00:34:37;;;;;;;5.43;2.53;;;1.90;99.90;0.80;99171;;;;578166;245;35123;-79
2022/03/30 00:37:08;;;;;;;5.93;2.47;;;1.80;99.90;0.80;99159;;;;583200;245;24065;-77
2022/03/30 00:39:36;;;;;;;1.80;1.70;;;1.80;99.90;0.70;99175;;;;584075;244;24110;-80
2022/03/30 00:42:03;;;;;;;6.97;2.67;;;1.70;99.90;0.70;99162;;;;584116;244;24064;-79
2022/03/30 00:44:28;;;;;;;6.50;2.00;;;1.70;99.90;0.70;99155;;;;584030;246;24072;-81
2022/03/30 00:46:56;;;;;;;3.83;2.27;;;1.70;99.90;0.70;99159;;;;584113;245;24072;-80
2022/03/30 00:49:24;;;;;;;6.20;2.80;;;1.70;99.90;0.70;99158;;;;583612;245;24069;-78
2022/03/30 00:51:52;;;;;;;7.90;3.20;;;1.70;99.90;0.70;99156;;;;583331;245;24161;-79
2022/03/30 00:54:24;;;;;;;7.30;3.63;;;1.70;99.90;0.80;99152;;;;583443;245;24143;-79
2022/03/30 00:56:48;;;;;;;5.23;3.53;;;1.80;99.90;0.80;99148;;;;583017;246;24096;-79
2022/03/30 00:59:19;;;;;;;8.50;3.70;;;1.80;99.90;0.80;99156;;;;582958;245;24054;-78
2022/03/30 01:01:43;;;;;;;7.03;3.87;;;1.80;99.90;0.90;99166;;;;582785;246;24093;-79
2022/03/30 01:04:11;;;;;;;6.27;3.90;;;1.90;99.90;0.90;99167;;;;583030;245;24092;-77
2022/03/30 01:06:39;;;;;;;10.47;4.77;;;1.90;99.90;1.00;99162;;;;583171;245;24126;-77
2022/03/30 01:09:07;;;;;;;7.60;4.20;;;2.00;99.90;1.00;99160;;;;583041;245;24074;-76
2022/03/30 01:11:35;;;;;;;9.10;4.57;;;2.00;99.90;1.10;99156;;;;582973;245;24076;-76
2022/03/30 01:14:04;;;;;;;16.63;5.07;;;2.10;99.90;1.20;99163;;;;583138;245;24149;-77
2022/03/30 01:16:32;;;;;;;10.60;5.37;;;2.20;99.90;1.20;99163;;;;583184;245;24091;-77
2022/03/30 01:19:09;;;;;;;9.03;4.90;;;2.20;99.90;1.20;99165;;;;583329;245;24065;-77
2022/03/30 01:21:33;;;;;;;12.53;5.23;;;2.20;99.90;1.20;99162;;;;583175;245;24086;-76
2022/03/30 01:24:01;;;;;;;6.27;4.60;;;2.20;99.90;1.20;99154;;;;583646;244;24075;-77
2022/03/30 01:26:29;;;;;;;7.50;4.03;;;2.30;99.90;1.30;99155;;;;583585;245;24143;-77
2022/03/30 01:28:57;;;;;;;9.37;4.70;;;2.30;99.90;1.30;99144;;;;583263;245;24137;-77
2022/03/30 01:34:12;;;;;;;9.33;5.00;;;2.20;99.90;1.20;99143;;;;583280;244;25110;-78
2022/03/30 01:36:39;;;;;;;9.30;4.13;;;2.20;99.90;1.20;99132;;;;582754;245;24139;-78
2022/03/30 01:39:08;;;;;;;4.30;3.50;;;2.20;99.90;1.10;99127;;;;582713;245;24096;-77
2022/03/30 01:41:36;;;;;;;10.07;4.37;;;2.10;99.90;1.00;99134;;;;582863;245;24094;-77
2022/03/30 01:44:04;;;;;;;11.50;4.67;;;2.00;99.90;0.90;99142;;;;582713;245;24101;-77
2022/03/30 01:46:32;;;;;;;9.17;4.57;;;2.00;99.90;0.90;99143;;;;582848;245;24085;-78
2022/03/30 01:49:00;;;;;;;8.37;4.03;;;1.90;99.90;0.90;99139;;;;582495;246;24081;-77
2022/03/30 01:51:28;;;;;;;9.97;5.50;;;1.90;99.90;0.80;99129;;;;584497;244;24072;-77
2022/03/30 01:53:55;;;;;;;9.00;5.90;;;1.90;99.90;0.80;99125;;;;583914;244;25127;-78
2022/03/30 01:56:23;;;;;;;9.93;5.90;;;1.80;99.90;0.70;99127;;;;583509;245;24083;-77
2022/03/30 01:58:52;;;;;;;6.57;5.10;;;1.80;99.90;0.70;99114;;;;583633;245;24081;-77
2022/03/30 02:01:20;;;;;;;9.73;6.03;;;1.70;99.90;0.70;99116;;;;583187;246;24080;-77
2022/03/30 02:03:47;;;;;;;10.73;6.70;;;1.80;99.90;0.70;99116;;;;583443;245;24096;-78
2022/03/30 02:06:15;;;;;;;13.30;5.93;;;1.80;99.90;0.80;99101;;;;583729;245;24138;-79
2022/03/30 02:08:43;;;;;;;8.00;5.17;;;1.80;99.90;0.80;99101;;;;583557;245;24070;-79
2022/03/30 02:11:11;;;;;;;8.27;5.40;;;1.80;99.90;0.90;99103;;;;583454;245;24092;-78
2022/03/30 02:13:38;;;;;;;8.97;5.43;;;1.90;99.90;0.90;99102;;;;583451;245;24132;-77
2022/03/30 02:16:06;;;;;;;7.23;4.20;;;1.90;99.90;1.00;99092;;;;583411;245;24080;-77
2022/03/30 02:18:35;;;;;;;10.03;5.00;;;2.00;99.90;1.00;99097;;;;583441;245;26290;-78
2022/03/30 02:21:02;;;;;;;5.80;4.37;;;2.10;99.90;1.10;99101;;;;583324;246;24087;-77
2022/03/30 02:23:30;;;;;;;7.73;4.67;;;2.10;99.90;1.10;99086;;;;583140;245;24113;-77
2022/03/30 02:25:58;;;;;;;9.23;4.57;;;2.10;99.90;1.10;99093;;;;577889;245;35133;-77
2022/03/30 02:28:26;;;;;;;7.55;4.70;;;2.20;99.90;1.20;99093;;;;577847;245;35187;-80
2022/03/30 02:30:53;;;;;;;6.63;3.70;;;2.20;99.90;1.20;99096;;;;582915;245;24077;-79
2022/03/30 02:33:22;;;;;;;3.40;2.60;;;2.30;99.90;1.30;99097;;;;582986;245;24069;-78
2022/03/30 02:35:49;;;;;;;9.50;3.13;;;2.30;99.90;1.30;99090;;;;582979;245;24081;-82
2022/03/30 02:38:17;;;;;;;5.93;2.67;;;2.30;99.90;1.30;99096;;;;582899;245;24068;-80
2022/03/30 02:40:48;;;;;;;5.47;2.50;;;2.40;99.90;1.30;99079;;;;583134;245;24101;-82
2022/03/30 02:43:16;;;;;;;6.33;2.80;;;2.40;99.90;1.40;99084;;;;582597;246;24082;-82
2022/03/30 02:45:41;;;;;;;6.27;3.20;;;2.40;99.90;1.30;99086;;;;590963;241;24090;-82
2022/03/30 02:48:28;;;;;;;7.43;3.97;;;2.40;99.90;1.30;99087;;;;585584;242;34968;-79
2022/03/30 02:50:48;;;;;;;10.13;4.10;;;2.30;99.90;1.20;99086;;;;590003;243;24057;-79
2022/03/30 02:53:16;;;;;;;5.77;3.87;;;2.20;99.90;1.20;99077;;;;590892;243;24048;-79
2022/03/30 02:55:44;;;;;;;5.13;3.27;;;2.20;99.90;1.20;99079;;;;580322;247;24085;-77
2022/03/30 02:58:12;;;;;;;6.60;3.17;;;2.20;99.90;1.20;99076;;;;591077;242;24079;-78
2022/03/30 03:00:43;;;;;;;5.47;3.17;;;2.20;99.90;1.20;99078;;;;580287;247;24079;-78
2022/03/30 03:03:10;;;;;;;5.53;3.83;;;2.20;99.90;1.20;99082;;;;581285;245;24084;-77
2022/03/30 03:05:41;;;;;;;6.03;2.90;;;2.20;99.90;1.30;99070;;;;592145;241;24039;-78
2022/03/30 03:08:06;;;;;;;6.47;3.10;;;2.20;99.90;1.20;99076;;;;580818;247;24099;-76
2022/03/30 03:10:34;;;;;;;11.10;3.97;;;2.20;99.90;1.20;99079;;;;581057;246;24075;-77
2022/03/30 03:13:06;;;;;;;4.90;3.07;;;2.20;99.90;1.20;99069;;;;570466;251;24102;-78
2022/03/30 03:15:30;;;;;;;9.80;3.67;;;2.20;99.90;1.20;99072;;;;580476;247;24067;-78
2022/03/30 03:17:58;;;;;;;6.47;3.30;;;2.20;99.90;1.20;99074;;;;570472;251;24091;-77
2022/03/30 03:20:28;;;;;;;8.33;3.40;;;2.20;99.90;1.20;99073;;;;580676;246;24485;-77
2022/03/30 03:23:02;;;;;;;8.00;6.07;;;2.20;99.90;1.20;99072;;;;569811;251;24119;-77
2022/03/30 03:25:29;;;;;;;6.40;4.60;;;2.20;99.90;1.10;99075;;;;579917;246;24099;-77
2022/03/30 03:27:54;;;;;;;11.70;6.00;;;2.10;99.90;1.10;99072;;;;569752;251;24188;-78
2022/03/30 03:30:26;;;;;;;12.27;7.07;;;2.10;99.90;1.00;99085;;;;580093;246;24078;-78
2022/03/30 03:32:50;;;;;;;13.87;7.57;;;2.00;99.90;1.00;99082;;;;569570;251;24110;-77
2022/03/30 03:35:18;;;;;;;15.30;8.80;;;2.00;99.90;1.00;99081;;;;580150;246;24093;-78
2022/03/30 03:37:46;;;;;;;13.27;8.67;;;2.00;99.90;1.00;99085;;;;569806;251;24157;-79
2022/03/30 03:40:17;;;;;;;13.03;8.60;;;2.00;99.90;1.00;99093;;;;580296;246;24071;-77
2022/03/30 03:42:42;;;;;;;16.70;8.63;;;2.00;99.90;1.00;99094;;;;569673;251;24095;-78
2022/03/30 03:45:12;;;;;;;14.07;8.50;;;2.00;99.90;0.90;99092;;;;580222;247;24105;-80
2022/03/30 03:47:38;;;;;;;19.47;8.80;;;1.90;99.90;0.90;99088;;;;579805;247;24082;-77
2022/03/30 03:50:06;;;;;;;10.77;7.43;;;1.90;99.90;0.90;99088;;;;580023;246;24083;-77
2022/03/30 03:52:34;;;;;;;13.87;7.17;;;1.90;99.90;0.90;99088;;;;569537;251;24111;-76
2022/03/30 03:55:03;;;;;;;12.93;7.93;;;1.90;99.90;1.00;99097;;;;580030;246;24063;-77
2022/03/30 03:57:33;;;;;;;18.60;8.40;;;1.90;99.90;1.00;99103;;;;569545;252;24169;-77
2022/03/30 03:59:58;;;;;;;13.47;7.73;;;2.00;99.90;1.00;99100;;;;579490;247;24090;-77
2022/03/30 04:02:25;;;;;;;24.77;18.13;;;2.00;99.90;1.00;99098;;;;569597;251;24111;-77
2022/03/30 04:04:53;;;;;;;31.93;20.70;;;2.00;99.90;1.10;99090;;;;579912;246;24118;-78
2022/03/30 04:07:21;;;;;;;23.77;17.17;;;2.10;99.90;1.10;99098;;;;569674;251;24122;-78
2022/03/30 04:09:49;;;;;;;20.40;14.80;;;2.00;99.90;1.00;99098;;;;579910;246;24108;-79
2022/03/30 04:12:17;;;;;;;18.23;11.03;;;2.00;99.90;1.00;99101;;;;569468;251;24146;-77
2022/03/30 04:14:45;;;;;;;15.67;10.60;;;2.00;99.90;1.00;99099;;;;570934;250;24124;-78
2022/03/30 04:17:13;;;;;;;14.57;10.57;;;2.00;99.90;1.00;99093;;;;569595;252;24120;-77
2022/03/30 04:19:41;;;;;;;14.43;9.73;;;2.00;99.90;1.00;99098;;;;573205;250;24170;-77
2022/03/30 04:22:09;;;;;;;16.53;8.87;;;2.00;99.90;1.00;99100;;;;573424;249;24120;-77
2022/03/30 04:24:37;;;;;;;14.90;8.48;;;2.00;99.90;1.00;99101;;;;567979;249;35329;-78
2022/03/30 04:27:05;;;;;;;8.97;5.40;;;2.00;99.90;1.00;99109;;;;572865;249;24104;-77
2022/03/30 04:29:33;;;;;;;12.00;5.90;;;2.10;99.90;1.00;99109;;;;572851;249;24119;-80
2022/03/30 04:32:01;;;;;;;17.90;5.73;;;2.10;99.90;1.10;99102;;;;573004;249;24100;-78
2022/03/30 04:34:28;;;;;;;7.77;5.50;;;2.10;99.90;1.10;99102;;;;572752;249;24101;-82
2022/03/30 04:36:56;;;;;;;8.87;5.90;;;2.10;99.90;1.10;99090;;;;572989;249;24116;-81
2022/03/30 04:39:24;;;;;;;12.13;6.37;;;2.20;99.90;1.10;99096;;;;572861;249;24114;-81
2022/03/30 04:41:52;;;;;;;9.73;5.83;;;2.20;99.90;1.10;99098;;;;572739;249;24147;-81
2022/03/30 04:44:21;;;;;;;9.97;5.80;;;2.20;99.90;1.10;99101;;;;572920;249;24129;-81
2022/03/30 04:46:48;;;;;;;16.93;6.17;;;2.20;99.90;1.10;99104;;;;572773;251;24139;-81
2022/03/30 04:49:17;;;;;;;12.63;5.57;;;2.10;99.90;1.10;99121;;;;563404;251;24146;-81
2022/03/30 04:51:44;;;;;;;11.63;4.60;;;2.10;99.90;1.10;99122;;;;563122;251;24089;-81
2022/03/30 04:54:12;;;;;;;9.53;3.87;;;2.10;99.90;1.00;99129;;;;563227;251;24076;-82
2022/03/30 04:56:40;;;;;;;13.63;3.17;;;2.10;99.90;0.90;99119;;;;563249;251;24088;-82
2022/03/30 04:59:08;;;;;;;8.17;4.70;;;2.00;99.90;0.70;99120;;;;563033;251;24131;-81
2022/03/30 05:01:37;;;;;;;14.73;4.50;;;1.80;99.90;0.60;99130;;;;563213;251;24130;-79
2022/03/30 05:04:04;;;;;;;6.60;4.73;;;1.70;99.90;0.40;99124;;;;562960;251;24093;-80
2022/03/30 05:06:32;;;;;;;11.53;5.10;;;1.50;99.90;0.30;99131;;;;571461;250;24105;-79
2022/03/30 05:09:00;;;;;;;7.13;4.20;;;1.30;99.90;0.20;99144;;;;562960;251;24081;-78
2022/03/30 05:11:32;;;;;;;5.67;4.33;;;1.30;99.90;0.10;99143;;;;562827;251;24105;-78
2022/03/30 05:13:56;;;;;;;10.37;5.63;;;1.20;99.90;0.00;99150;;;;562858;251;24087;-78
2022/03/30 05:16:24;;;;;;;11.83;6.47;;;1.10;99.90;-0.10;99154;;;;562820;251;24091;-78
2022/03/30 05:18:52;;;;;;;10.53;6.77;;;1.00;99.90;-0.10;99169;;;;562966;251;24090;-78
2022/03/30 05:21:20;;;;;;;14.13;8.18;;;0.90;99.90;-0.10;99151;;;;557987;251;35320;-78
2022/03/30 05:23:48;;;;;;;6.23;3.80;;;0.90;99.90;-0.20;99161;;;;563220;251;24167;-77
2022/03/30 05:26:16;;;;;;;12.70;5.60;;;0.90;99.90;-0.20;99162;;;;564451;250;24174;-78
2022/03/30 05:28:44;;;;;;;7.57;4.70;;;0.90;99.90;-0.30;99163;;;;563852;250;24093;-78
2022/03/30 05:31:12;;;;;;;6.83;4.30;;;0.80;99.90;-0.40;99177;;;;564182;250;24085;-81
2022/03/30 05:33:40;;;;;;;11.77;4.37;;;0.70;99.90;-0.40;99197;;;;563873;251;24095;-81
2022/03/30 05:36:11;;;;;;;10.93;3.47;;;0.70;99.90;-0.50;99197;;;;564271;251;24082;-81
2022/03/30 05:38:38;;;;;;;6.13;2.67;;;0.70;99.90;-0.60;99189;;;;563863;251;24155;-83
2022/03/30 05:41:03;;;;;;;12.03;3.13;;;0.50;99.90;-0.70;99192;;;;563892;251;24104;-82
2022/03/30 05:43:31;;;;;;;5.30;2.97;;;0.40;99.90;-0.70;99201;;;;564167;251;24084;-83
2022/03/30 05:45:59;;;;;;;6.20;2.70;;;0.40;99.90;-0.80;99207;;;;563968;251;24138;-83
2022/03/30 05:48:27;;;;;;;7.80;3.67;;;0.30;99.90;-0.80;99203;;;;564086;251;24086;-79
2022/03/30 05:50:56;;;;;;;5.17;3.33;;;0.20;99.90;-0.80;99203;;;;563913;251;24177;-80
2022/03/30 05:53:24;;;;;;;6.97;3.77;;;0.20;99.90;-0.90;99213;;;;564143;251;24108;-82
2022/03/30 05:55:51;;;;;;;6.33;3.73;;;0.20;99.90;-0.90;99210;;;;563693;251;24167;-80
2022/03/30 05:58:19;;;;;;;7.10;3.87;;;0.20;99.90;-0.90;99227;;;;563791;251;24108;-78
2022/03/30 06:00:50;;;;;;;4.63;3.57;;;0.20;99.90;-0.90;99228;;;;563512;251;24168;-79
2022/03/30 06:03:15;;;;;;;6.90;3.80;;;0.20;99.90;-0.90;99229;;;;571220;251;24133;-78
2022/03/30 06:05:43;;;;;;;7.53;3.90;;;0.10;99.90;-1.00;99233;;;;563422;251;24085;-78
2022/03/30 06:08:11;;;;;;;5.00;3.97;;;0.10;99.90;-0.90;99237;;;;558253;251;35276;-79
2022/03/30 06:10:39;;;;;;;6.77;3.03;;;0.10;99.90;-0.90;99246;;;;563007;251;24143;-79
2022/03/30 06:13:07;;;;;;;10.43;3.90;;;0.10;99.90;-0.90;99243;;;;563268;251;24082;-78
2022/03/30 06:15:38;;;;;;;6.73;2.90;;;0.20;99.90;-0.90;99261;;;;563122;251;24102;-77
2022/03/30 06:18:05;;;;;;;3.90;3.03;;;0.20;99.90;-1.00;99256;;;;563178;251;24081;-77
2022/03/30 06:20:31;;;;;;;7.63;2.97;;;0.10;99.90;-1.00;99264;;;;563071;251;24089;-77
2022/03/30 06:23:00;;;;;;;4.83;2.60;;;0.10;99.90;-1.00;99252;;;;563751;251;24100;-78
2022/03/30 06:25:27;;;;;;;11.73;3.10;;;0.10;99.90;-0.90;99259;;;;563848;251;24092;-77
2022/03/30 06:27:55;;;;;;;7.33;2.73;;;0.20;99.90;-1.00;99277;;;;564045;251;24084;-79
2022/03/30 06:30:23;;;;;;;5.30;2.87;;;0.10;99.90;-1.00;99268;;;;563813;251;24103;-81
2022/03/30 06:32:51;;;;;;;3.57;2.57;;;0.10;99.90;-1.00;99272;;;;563321;251;24109;-77
2022/03/30 06:35:19;;;;;;;5.20;2.60;;;0.10;99.90;-1.10;99272;;;;563541;251;24092;-78
2022/03/30 06:37:47;;;;;;;5.97;2.30;;;0.00;99.90;-1.10;99279;;;;559854;250;24123;-82
2022/03/30 06:40:18;;;;;;;2.57;2.37;;;0.00;99.90;-1.10;99263;;;;564631;250;24111;-80
2022/03/30 06:42:44;;;;;;;3.83;1.93;;;0.00;99.90;-1.10;99317;;;;564029;250;24101;-82
2022/03/30 06:45:14;;;;;;;5.60;2.20;;;0.00;99.90;-1.20;99292;;;;564251;251;24138;-77
2022/03/30 06:47:42;;;;;;;4.53;2.47;;;0.00;99.90;-1.20;99287;;;;564016;251;24092;-82
2022/03/30 06:50:11;;;;;;;5.50;2.30;;;-0.10;99.90;-1.20;99291;;;;568884;247;24054;-81
2022/03/30 06:52:35;;;;;;;4.47;2.10;;;-0.10;99.90;-1.20;99294;;;;562881;252;24141;-82
2022/03/30 06:55:05;;;;;;;4.67;2.10;;;-0.10;99.90;-1.20;99287;;;;573227;247;24041;-82
2022/03/30 06:57:33;;;;;;;4.03;1.83;;;-0.10;99.90;-1.20;99307;;;;562457;252;24129;-81
2022/03/30 07:00:01;;;;;;;2.60;2.00;;;-0.10;99.90;-1.20;99306;;;;570172;247;24088;-81
2022/03/30 07:02:29;;;;;;;1.90;1.80;;;-0.10;99.90;-1.20;99319;;;;573207;247;24054;-78
2022/03/30 07:04:57;;;;;;;3.27;1.90;;;-0.10;99.90;-1.20;99320;;;;563219;252;24090;-79
2022/03/30 07:10:17;;;;;;;3.90;1.63;;;-0.10;99.90;-1.20;99326;;;;563052;252;24113;-82
2022/03/30 07:12:50;;;;;;;1.53;1.43;;;-0.10;99.90;-1.30;99342;;;;574321;248;24074;-82
2022/03/30 07:15:16;;;;;;;1.40;1.40;;;-0.10;99.90;-1.30;99327;;;;562243;252;25187;-81
2022/03/30 07:17:46;;;;;;;1.67;1.57;;;-0.10;99.90;-1.30;99332;;;;560077;252;24110;-80
2022/03/30 07:20:17;;;;;;;2.23;1.83;;;-0.10;99.90;-1.30;99338;;;;560375;252;24078;-82
2022/03/30 07:22:42;;;;;;;2.97;1.80;;;-0.10;99.90;-1.30;99359;;;;572766;248;24086;-80
2022/03/30 07:25:10;;;;;;;2.37;1.57;;;-0.10;99.90;-1.20;99346;;;;581254;247;24121;-83
2022/03/30 07:27:40;;;;;;;2.60;1.60;;;-0.10;99.90;-1.20;99349;;;;570974;251;24075;-82
2022/03/30 07:30:09;;;;;;;2.87;1.83;;;-0.10;99.90;-1.30;99360;;;;572084;247;24070;-82
2022/03/30 07:32:39;;;;;;;2.50;1.70;;;-0.10;99.90;-1.30;99378;;;;563516;251;24085;-79
2022/03/30 07:35:04;;;;;;;2.30;1.60;;;-0.10;99.90;-1.30;99371;;;;562370;252;24129;-81
2022/03/30 07:37:37;;;;;;;4.07;1.43;;;-0.10;99.90;-1.30;99362;;;;558489;250;24089;-79
2022/03/30 07:40:03;;;;;;;1.30;1.20;;;-0.20;99.90;-1.30;99374;;;;567640;251;24134;-80
2022/03/30 07:42:30;;;;;;;2.53;1.20;;;-0.20;99.90;-1.30;99378;;;;561909;252;24115;-81
2022/03/30 07:44:58;;;;;;;1.70;0.93;;;-0.20;99.90;-1.30;99387;;;;564189;252;24112;-81
2022/03/30 07:47:25;;;;;;;1.93;1.57;;;-0.20;99.90;-1.30;99393;;;;577668;242;24073;-82
2022/03/30 07:49:54;;;;;;;1.83;1.23;;;-0.20;99.90;-1.30;99382;;;;574303;247;24081;-82
2022/03/30 07:52:22;;;;;;;1.37;1.27;;;-0.20;99.90;-1.30;99394;;;;563291;252;24093;-78
2022/03/30 07:54:50;;;;;;;3.87;1.60;;;-0.10;99.90;-1.30;99402;;;;574728;247;24057;-78
2022/03/30 07:57:26;;;;;;;4.93;1.83;;;-0.10;99.90;-1.30;99399;;;;567042;253;24085;-79
2022/03/30 07:59:47;;;;;;;1.33;1.23;;;-0.10;99.90;-1.30;99397;;;;571654;247;24081;-79
2022/03/30 08:02:15;;;;;;;1.30;1.20;;;-0.10;99.90;-1.30;99404;;;;581394;246;24062;-81
2022/03/30 08:04:42;;;;;;;1.43;1.33;;;-0.10;99.90;-1.20;99417;;;;561984;252;24131;-79
2022/03/30 08:07:10;;;;;;;1.80;1.40;;;-0.10;99.90;-1.20;99415;;;;572524;247;24058;-78
2022/03/30 08:09:38;;;;;;;3.73;1.93;;;-0.10;99.90;-1.10;99425;;;;562328;252;24102;-79
2022/03/30 08:12:06;;;;;;;3.83;1.37;;;0.00;99.90;-1.10;99416;;;;574076;247;25099;-79
2022/03/30 08:14:35;;;;;;;2.07;1.20;;;0.10;99.90;-1.10;99431;;;;562374;252;24080;-81
2022/03/30 08:17:05;;;;;;;2.13;1.40;;;0.00;99.90;-1.10;99431;;;;574230;247;24094;-78
2022/03/30 08:19:31;;;;;;;1.30;1.20;;;0.10;99.90;-1.00;99426;;;;562089;252;24075;-79
2022/03/30 08:24:48;;;;;;;1.67;1.23;;;0.20;99.90;-1.00;99439;;;;564304;252;25120;-80
2022/03/30 08:27:12;;;;;;;1.40;0.90;;;0.20;99.90;-1.00;99441;;;;571978;248;24108;-79
2022/03/30 08:29:40;;;;;;;1.40;1.27;;;0.10;99.90;-1.00;99425;;;;563020;252;24094;-80
2022/03/30 08:32:08;;;;;;;4.13;1.50;;;0.20;99.90;-1.00;99442;;;;562463;252;24063;-80
2022/03/30 08:34:36;;;;;;;4.70;1.90;;;0.20;99.90;-0.90;99440;;;;562032;252;24102;-80
2022/03/30 08:37:04;;;;;;;1.20;1.10;;;0.20;99.90;-0.90;99443;;;;562224;252;24072;-81
2022/03/30 08:39:33;;;;;;;2.10;1.37;;;0.20;99.90;-0.90;99444;;;;572190;248;24063;-79
2022/03/30 08:42:02;;;;;;;2.10;1.20;;;0.20;99.90;-0.90;99439;;;;572344;248;24077;-82
2022/03/30 08:44:30;;;;;;;1.10;1.00;;;0.30;99.90;-0.80;99446;;;;569919;248;24121;-79
2022/03/30 08:46:55;;;;;;;2.03;1.43;;;0.30;99.90;-0.70;99438;;;;581119;245;24077;-82
2022/03/30 08:49:27;;;;;;;1.17;1.07;;;0.40;99.90;-0.70;99460;;;;556827;252;24122;-82
2022/03/30 08:51:54;;;;;;;2.57;1.33;;;0.40;99.90;-0.70;99467;;;;571961;248;24077;-82
2022/03/30 08:54:23;;;;;;;3.60;1.63;;;0.50;99.90;-0.60;99458;;;;572179;248;24093;-78
2022/03/30 08:56:47;;;;;;;2.73;2.00;;;0.50;99.90;-0.60;99462;;;;557289;253;24098;-82
2022/03/30 08:59:18;;;;;;;3.40;1.67;;;0.60;99.90;-0.50;99465;;;;572602;245;24047;-83
2022/03/30 09:01:46;;;;;;;1.50;1.13;;;0.70;99.90;-0.50;99468;;;;571627;251;24176;-83
2022/03/30 09:04:17;;;;;;;2.07;1.93;;;0.70;99.90;-0.50;99468;;;;562846;252;24108;-82
2022/03/30 09:06:56;;;;;;;3.37;1.43;;;0.70;99.90;-0.50;99466;;;;572500;247;24061;-82
2022/03/30 09:09:30;;;;;;;1.77;1.17;;;0.70;99.90;-0.50;99470;;;;563128;252;24096;-80
2022/03/30 09:11:59;;;;;;;2.37;1.40;;;0.70;99.90;-0.50;99462;;;;572936;247;24073;-81
2022/03/30 09:14:26;;;;;;;2.13;1.53;;;0.70;99.90;-0.40;99478;;;;562753;252;24086;-79
2022/03/30 09:16:54;;;;;;;1.60;1.50;;;0.70;99.90;-0.50;99476;;;;561119;252;24188;-81
2022/03/30 09:19:22;;;;;;;1.23;1.20;;;0.60;99.90;-0.50;99480;;;;572604;247;24064;-78
2022/03/30 09:21:57;;;;;;;2.27;1.60;;;0.60;99.90;-0.60;99478;;;;562407;252;24081;-81
2022/03/30 09:24:27;;;;;;;1.20;1.10;;;0.60;99.90;-0.60;99467;;;;561870;252;24115;-81
2022/03/30 09:26:54;;;;;;;6.23;1.10;;;0.60;99.90;-0.60;99479;;;;562197;252;24101;-83
2022/03/30 09:29:22;;;;;;;1.37;1.20;;;0.50;99.90;-0.50;99469;;;;571469;252;24122;-83
2022/03/30 09:31:54;;;;;;;3.40;1.40;;;0.60;99.90;-0.40;99478;;;;573528;247;24080;-79
2022/03/30 09:34:19;;;;;;;1.70;1.30;;;0.70;99.90;-0.30;99477;;;;558174;253;24084;-82
2022/03/30 09:36:50;;;;;;;1.10;1.00;;;0.80;99.90;-0.20;99479;;;;572325;248;24063;-79
2022/03/30 09:39:32;;;;;;;1.23;1.10;;;0.90;99.90;0.00;99471;;;;561808;252;24148;-80
2022/03/30 09:42:00;;;;;;;1.07;1.07;;;1.10;99.90;0.10;99477;;;;561479;252;24113;-78
2022/03/30 09:44:29;;;;;;;2.90;1.20;;;1.30;99.90;0.20;99483;;;;570190;251;24118;-78
2022/03/30 09:47:03;;;;;;;1.70;1.20;;;1.30;99.90;0.40;99487;;;;561654;252;24100;-80
2022/03/30 09:49:42;;;;;;;3.53;1.70;;;1.40;99.90;0.50;99478;;;;561376;252;24202;-81
2022/03/30 09:52:21;;;;;;;1.97;1.77;;;1.60;99.90;0.70;99489;;;;561247;252;24167;-82
2022/03/30 09:54:53;;;;;;;2.17;1.60;;;1.80;99.90;0.90;99498;;;;573910;248;24054;-79
2022/03/30 09:57:25;;;;;;;1.00;0.90;;;2.00;99.90;1.00;99495;;;;559812;252;24093;-80
2022/03/30 09:59:59;;;;;;;6.17;1.57;;;2.10;99.90;1.10;99494;;;;562072;252;24114;-81
2022/03/30 10:02:31;;;;;;;0.60;0.60;;;2.20;99.90;1.20;99486;;;;557361;253;24113;-79
2022/03/30 10:04:56;;;;;;;1.13;1.03;;;2.30;99.90;1.30;99495;;;;561569;252;24142;-77
2022/03/30 10:07:23;;;;;;;1.50;0.73;;;2.40;99.90;1.20;99500;;;;571914;248;24125;-79
2022/03/30 10:09:51;;;;;;;0.60;0.60;;;2.40;99.90;1.30;99506;;;;573830;248;24150;-78
2022/03/30 10:12:19;;;;;;;1.48;0.80;;;2.40;99.90;1.30;99484;;;;557979;251;46084;-79
2022/03/30 10:14:48;;;;;;;2.23;0.60;;;2.40;99.90;1.20;99492;;;;572749;247;24112;-79
2022/03/30 10:17:18;;;;;;;1.80;1.00;;;2.40;99.90;1.40;99495;;;;566748;247;24103;-79
2022/03/30 10:19:46;;;;;;;0.77;0.67;;;2.40;99.90;1.50;99492;;;;568644;247;24079;-77
2022/03/30 10:22:25;;;;;;;1.70;0.43;;;2.50;99.90;1.60;99491;;;;571054;251;24103;-78
2022/03/30 10:24:56;;;;;;;0.40;0.40;;;2.70;99.90;1.80;99496;;;;581869;246;24149;-78
2022/03/30 10:27:48;;;;;;;2.43;0.67;;;2.80;99.90;2.00;99489;;;;571179;252;24121;-81
2022/03/30 10:30:16;;;;;;;0.50;0.50;;;3.00;99.90;2.30;99495;;;;573359;247;24108;-80
2022/03/30 10:32:44;;;;;;;1.23;0.67;;;3.40;99.90;2.50;99488;;;;562336;252;24095;-81
2022/03/30 10:35:12;;;;;;;0.50;0.50;;;3.60;99.90;2.70;99489;;;;572274;247;24120;-81
2022/03/30 10:37:43;;;;;;;1.20;0.87;;;3.80;99.90;2.80;99488;;;;558332;253;24119;-81
2022/03/30 10:40:11;;;;;;;1.50;0.87;;;3.90;99.90;3.10;99480;;;;571586;247;24095;-82
2022/03/30 10:42:54;;;;;;;0.83;0.80;;;4.30;99.90;3.20;99489;;;;569955;251;24099;-82
2022/03/30 10:45:30;;;;;;;0.83;0.60;;;4.50;99.90;3.40;99494;;;;569497;247;24067;-81
2022/03/30 10:48:09;;;;;;;0.60;0.60;;;4.50;99.90;3.60;99490;;;;561764;252;24105;-82
2022/03/30 10:50:41;;;;;;;0.60;0.60;;;4.60;99.90;3.70;99496;;;;571739;248;24073;-81
2022/03/30 10:53:05;;;;;;;0.77;0.37;;;4.80;99.90;3.80;99489;;;;556734;253;24151;-81
2022/03/30 10:55:33;;;;;;;0.87;0.50;;;4.90;99.90;3.60;99498;;;;567657;248;24073;-82
2022/03/30 10:58:04;;;;;;;0.97;0.90;;;4.80;99.90;3.50;99484;;;;571905;248;24081;-82
2022/03/30 11:00:28;;;;;;;4.17;0.80;;;4.70;99.90;3.40;99493;;;;561032;252;24214;-82
2022/03/30 11:03:20;;;;;;;5.30;0.77;;;4.60;99.90;3.30;99500;;;;580412;247;24096;-80
2022/03/30 11:06:09;;;;;;;1.03;0.83;;;4.50;99.90;3.40;99493;;;;558906;252;24088;-81
2022/03/30 11:08:35;;;;;;;9.37;0.80;;;4.50;99.90;3.30;99509;;;;558496;252;24137;-83
2022/03/30 11:11:02;;;;;;;1.47;0.73;;;4.40;99.90;3.20;99497;;;;558693;252;24120;-81
2022/03/30 11:13:31;;;;;;;1.73;0.80;;;4.30;99.90;3.20;99507;;;;566176;252;24170;-81
2022/03/30 11:16:07;;;;;;;0.63;0.57;;;4.30;99.90;3.10;99503;;;;559022;252;24163;-79
2022/03/30 11:18:32;;;;;;;0.23;0.23;;;4.20;99.90;3.10;99505;;;;558786;252;24135;-82
2022/03/30 11:21:18;;;;;;;0.67;0.67;;;4.00;99.90;2.90;99513;;;;558964;252;24142;-80
2022/03/30 11:24:05;;;;;;;1.00;0.40;;;4.00;99.90;2.90;99494;;;;560359;252;24095;-80
2022/03/30 11:26:48;;;;;;;1.83;0.80;;;3.90;99.90;2.90;99497;;;;564823;250;24084;-82
2022/03/30 11:29:42;;;;;;;0.43;0.43;;;3.80;99.90;2.80;99498;;;;562451;250;24080;-81
2022/03/30 11:32:25;;;;;;;0.40;0.40;;;3.80;99.90;2.60;99494;;;;563619;251;24130;-83
2022/03/30 11:34:56;;;;;;;1.53;0.53;;;3.60;99.90;2.50;99500;;;;563008;251;24100;-77
2022/03/30 11:37:30;;;;;;;0.90;0.83;;;3.60;99.90;2.60;99490;;;;563547;251;24106;-82
2022/03/30 11:40:08;;;;;;;0.30;0.30;;;3.60;99.90;2.50;99502;;;;563398;251;24189;-77
2022/03/30 11:42:42;;;;;;;0.67;0.67;;;3.50;99.90;2.40;99499;;;;563065;251;24097;-78